sensor_id;sensor_type;location;lat;lon;timestamp;P1;durP1;ratioP1;P2;durP2;ratioP2
38224;SDS011;24025;48.138;11.428;2023-11-19T00:01:52;1.75;;;1.10;;
38224;SDS011;24025;48.138;11.428;2023-11-19T00:04:24;1.17;;;0.68;;
38224;SDS011;24025;48.138;11.428;2023-11-19T00:06:55;1.85;;;0.98;;
38224;SDS011;24025;48.138;11.428;2023-11-19T00:09:33;2.03;;;1.50;;
38224;SDS011;24025;48.138;11.428;2023-11-19T00:12:08;1.42;;;0.80;;
38224;SDS011;24025;48.138;11.428;2023-11-19T00:14:39;1.30;;;0.77;;
38224;SDS011;24025;48.138;11.428;2023-11-19T00:17:12;1.02;;;0.80;;
38224;SDS011;24025;48.138;11.428;2023-11-19T00:19:44;0.93;;;0.57;;
38224;SDS011;24025;48.138;11.428;2023-11-19T00:22:15;1.35;;;0.82;;
38224;SDS011;24025;48.138;11.428;2023-11-19T00:24:47;0.70;;;0.70;;
38224;SDS011;24025;48.138;11.428;2023-11-19T00:27:19;0.95;;;0.60;;
38224;SDS011;24025;48.138;11.428;2023-11-19T00:29:50;0.73;;;0.73;;
38224;SDS011;24025;48.138;11.428;2023-11-19T00:32:22;1.08;;;0.88;;
38224;SDS011;24025;48.138;11.428;2023-11-19T00:34:54;1.10;;;0.70;;
38224;SDS011;24025;48.138;11.428;2023-11-19T00:37:26;0.30;;;0.30;;
38224;SDS011;24025;48.138;11.428;2023-11-19T00:39:58;0.55;;;0.43;;
38224;SDS011;24025;48.138;11.428;2023-11-19T00:42:30;0.85;;;0.65;;
38224;SDS011;24025;48.138;11.428;2023-11-19T00:45:02;0.60;;;0.40;;
38224;SDS011;24025;48.138;11.428;2023-11-19T00:47:34;0.20;;;0.20;;
38224;SDS011;24025;48.138;11.428;2023-11-19T00:50:06;0.60;;;0.38;;
38224;SDS011;24025;48.138;11.428;2023-11-19T00:52:42;0.50;;;0.35;;
38224;SDS011;24025;48.138;11.428;2023-11-19T00:55:14;0.60;;;0.43;;
38224;SDS011;24025;48.138;11.428;2023-11-19T00:57:46;0.75;;;0.30;;
38224;SDS011;24025;48.138;11.428;2023-11-19T01:00:18;0.50;;;0.35;;
38224;SDS011;24025;48.138;11.428;2023-11-19T01:02:51;1.20;;;0.60;;
38224;SDS011;24025;48.138;11.428;2023-11-19T01:05:23;0.63;;;0.50;;
38224;SDS011;24025;48.138;11.428;2023-11-19T01:07:55;4.55;;;0.70;;
38224;SDS011;24025;48.138;11.428;2023-11-19T01:10:27;2.25;;;0.47;;
38224;SDS011;24025;48.138;11.428;2023-11-19T01:13:00;4.50;;;0.70;;
38224;SDS011;24025;48.138;11.428;2023-11-19T01:15:32;1.30;;;0.40;;
38224;SDS011;24025;48.138;11.428;2023-11-19T01:18:04;0.45;;;0.28;;
38224;SDS011;24025;48.138;11.428;2023-11-19T01:20:36;1.48;;;0.73;;
38224;SDS011;24025;48.138;11.428;2023-11-19T01:23:08;0.60;;;0.20;;
38224;SDS011;24025;48.138;11.428;2023-11-19T01:25:39;0.70;;;0.40;;
38224;SDS011;24025;48.138;11.428;2023-11-19T01:28:11;1.10;;;0.50;;
38224;SDS011;24025;48.138;11.428;2023-11-19T01:30:43;0.80;;;0.40;;
38224;SDS011;24025;48.138;11.428;2023-11-19T01:33:14;0.77;;;0.47;;
38224;SDS011;24025;48.138;11.428;2023-11-19T01:35:46;0.63;;;0.40;;
38224;SDS011;24025;48.138;11.428;2023-11-19T01:38:18;0.40;;;0.40;;
38224;SDS011;24025;48.138;11.428;2023-11-19T01:40:50;0.40;;;0.32;;
38224;SDS011;24025;48.138;11.428;2023-11-19T01:46:22;0.75;;;0.32;;
38224;SDS011;24025;48.138;11.428;2023-11-19T01:48:54;1.55;;;0.40;;
38224;SDS011;24025;48.138;11.428;2023-11-19T01:51:26;0.40;;;0.30;;
38224;SDS011;24025;48.138;11.428;2023-11-19T01:53:58;0.77;;;0.30;;
38224;SDS011;24025;48.138;11.428;2023-11-19T01:56:30;0.63;;;0.30;;
38224;SDS011;24025;48.138;11.428;2023-11-19T01:59:03;0.52;;;0.35;;
38224;SDS011;24025;48.138;11.428;2023-11-19T02:01:35;0.73;;;0.55;;
38224;SDS011;24025;48.138;11.428;2023-11-19T02:04:11;0.90;;;0.20;;
38224;SDS011;24025;48.138;11.428;2023-11-19T02:06:44;0.68;;;0.32;;
38224;SDS011;24025;48.138;11.428;2023-11-19T02:09:16;0.68;;;0.10;;
38224;SDS011;24025;48.138;11.428;2023-11-19T02:11:50;0.40;;;0.30;;
38224;SDS011;24025;48.138;11.428;2023-11-19T02:14:23;0.22;;;0.10;;
38224;SDS011;24025;48.138;11.428;2023-11-19T02:16:56;0.70;;;0.30;;
38224;SDS011;24025;48.138;11.428;2023-11-19T02:19:28;0.13;;;0.13;;
38224;SDS011;24025;48.138;11.428;2023-11-19T02:22:00;0.43;;;0.20;;
38224;SDS011;24025;48.138;11.428;2023-11-19T02:24:32;1.00;;;0.20;;
38224;SDS011;24025;48.138;11.428;2023-11-19T02:27:10;2.05;;;0.20;;
38224;SDS011;24025;48.138;11.428;2023-11-19T02:29:52;0.25;;;0.10;;
38224;SDS011;24025;48.138;11.428;2023-11-19T02:32:27;3.03;;;0.22;;
38224;SDS011;24025;48.138;11.428;2023-11-19T02:34:59;0.30;;;0.20;;
38224;SDS011;24025;48.138;11.428;2023-11-19T02:37:38;0.10;;;0.10;;
38224;SDS011;24025;48.138;11.428;2023-11-19T02:40:10;0.35;;;0.20;;
38224;SDS011;24025;48.138;11.428;2023-11-19T02:42:42;0.17;;;0.10;;
38224;SDS011;24025;48.138;11.428;2023-11-19T02:45:14;2.83;;;0.25;;
38224;SDS011;24025;48.138;11.428;2023-11-19T02:47:45;0.20;;;0.07;;
38224;SDS011;24025;48.138;11.428;2023-11-19T02:50:18;2.42;;;0.10;;
38224;SDS011;24025;48.138;11.428;2023-11-19T02:52:56;0.20;;;0.10;;
38224;SDS011;24025;48.138;11.428;2023-11-19T02:55:28;0.43;;;0.30;;
38224;SDS011;24025;48.138;11.428;2023-11-19T02:58:05;0.30;;;0.17;;
38224;SDS011;24025;48.138;11.428;2023-11-19T03:00:50;0.10;;;0.10;;
38224;SDS011;24025;48.138;11.428;2023-11-19T03:03:40;1.05;;;0.15;;
38224;SDS011;24025;48.138;11.428;2023-11-19T03:08:44;0.20;;;0.10;;
38224;SDS011;24025;48.138;11.428;2023-11-19T03:11:16;0.10;;;0.10;;
38224;SDS011;24025;48.138;11.428;2023-11-19T03:13:47;0.20;;;0.10;;
38224;SDS011;24025;48.138;11.428;2023-11-19T03:16:19;2.30;;;0.10;;
38224;SDS011;24025;48.138;11.428;2023-11-19T03:18:51;0.20;;;0.10;;
38224;SDS011;24025;48.138;11.428;2023-11-19T03:23:59;1.80;;;0.05;;
38224;SDS011;24025;48.138;11.428;2023-11-19T03:26:31;0.03;;;0.00;;
38224;SDS011;24025;48.138;11.428;2023-11-19T03:29:05;0.28;;;0.10;;
38224;SDS011;24025;48.138;11.428;2023-11-19T03:31:36;0.00;;;0.00;;
38224;SDS011;24025;48.138;11.428;2023-11-19T03:34:14;0.30;;;0.10;;
38224;SDS011;24025;48.138;11.428;2023-11-19T03:36:45;0.15;;;0.00;;
38224;SDS011;24025;48.138;11.428;2023-11-19T03:39:17;0.27;;;0.10;;
38224;SDS011;24025;48.138;11.428;2023-11-19T03:41:48;3.20;;;0.10;;
38224;SDS011;24025;48.138;11.428;2023-11-19T03:44:20;0.10;;;0.10;;
38224;SDS011;24025;48.138;11.428;2023-11-19T03:46:52;0.38;;;0.10;;
38224;SDS011;24025;48.138;11.428;2023-11-19T03:49:24;0.10;;;0.00;;
38224;SDS011;24025;48.138;11.428;2023-11-19T03:51:55;0.13;;;0.10;;
38224;SDS011;24025;48.138;11.428;2023-11-19T03:54:27;0.10;;;0.00;;
38224;SDS011;24025;48.138;11.428;2023-11-19T03:56:59;0.20;;;0.10;;
38224;SDS011;24025;48.138;11.428;2023-11-19T03:59:31;0.00;;;0.00;;
38224;SDS011;24025;48.138;11.428;2023-11-19T04:02:02;0.20;;;0.10;;
38224;SDS011;24025;48.138;11.428;2023-11-19T04:04:34;1.48;;;0.10;;
38224;SDS011;24025;48.138;11.428;2023-11-19T04:07:06;0.80;;;0.00;;
38224;SDS011;24025;48.138;11.428;2023-11-19T04:09:38;0.00;;;0.00;;
38224;SDS011;24025;48.138;11.428;2023-11-19T04:12:09;0.20;;;0.10;;
38224;SDS011;24025;48.138;11.428;2023-11-19T04:14:41;0.47;;;0.17;;
38224;SDS011;24025;48.138;11.428;2023-11-19T04:17:15;0.55;;;0.08;;
38224;SDS011;24025;48.138;11.428;2023-11-19T04:19:47;0.23;;;0.20;;
38224;SDS011;24025;48.138;11.428;2023-11-19T04:22:18;0.00;;;0.00;;
38224;SDS011;24025;48.138;11.428;2023-11-19T04:24:50;0.50;;;0.20;;
38224;SDS011;24025;48.138;11.428;2023-11-19T04:27:22;0.00;;;0.00;;
38224;SDS011;24025;48.138;11.428;2023-11-19T04:29:53;0.55;;;0.10;;
38224;SDS011;24025;48.138;11.428;2023-11-19T04:32:27;0.00;;;0.00;;
38224;SDS011;24025;48.138;11.428;2023-11-19T04:34:59;0.10;;;0.10;;
38224;SDS011;24025;48.138;11.428;2023-11-19T04:37:30;1.42;;;0.10;;
38224;SDS011;24025;48.138;11.428;2023-11-19T04:40:02;0.82;;;0.52;;
38224;SDS011;24025;48.138;11.428;2023-11-19T04:45:06;0.55;;;0.20;;
38224;SDS011;24025;48.138;11.428;2023-11-19T04:47:38;0.38;;;0.10;;
38224;SDS011;24025;48.138;11.428;2023-11-19T04:50:10;0.20;;;0.10;;
38224;SDS011;24025;48.138;11.428;2023-11-19T04:52:42;0.13;;;0.08;;
38224;SDS011;24025;48.138;11.428;2023-11-19T04:55:16;0.17;;;0.00;;
38224;SDS011;24025;48.138;11.428;2023-11-19T04:57:49;1.85;;;0.25;;
38224;SDS011;24025;48.138;11.428;2023-11-19T05:00:20;0.10;;;0.10;;
38224;SDS011;24025;48.138;11.428;2023-11-19T05:02:53;1.50;;;0.85;;
38224;SDS011;24025;48.138;11.428;2023-11-19T05:05:24;0.25;;;0.20;;
38224;SDS011;24025;48.138;11.428;2023-11-19T05:07:56;0.88;;;0.10;;
38224;SDS011;24025;48.138;11.428;2023-11-19T05:10:28;0.50;;;0.20;;
38224;SDS011;24025;48.138;11.428;2023-11-19T05:12:59;0.30;;;0.28;;
38224;SDS011;24025;48.138;11.428;2023-11-19T05:15:31;2.47;;;0.10;;
38224;SDS011;24025;48.138;11.428;2023-11-19T05:18:03;0.10;;;0.10;;
38224;SDS011;24025;48.138;11.428;2023-11-19T05:20:36;3.33;;;0.13;;
38224;SDS011;24025;48.138;11.428;2023-11-19T05:23:07;2.33;;;0.20;;
38224;SDS011;24025;48.138;11.428;2023-11-19T05:25:51;0.73;;;0.10;;
38224;SDS011;24025;48.138;11.428;2023-11-19T05:28:23;0.17;;;0.13;;
38224;SDS011;24025;48.138;11.428;2023-11-19T05:30:55;0.00;;;0.00;;
38224;SDS011;24025;48.138;11.428;2023-11-19T05:33:27;0.20;;;0.20;;
38224;SDS011;24025;48.138;11.428;2023-11-19T05:35:59;2.60;;;0.10;;
38224;SDS011;24025;48.138;11.428;2023-11-19T05:38:31;0.10;;;0.10;;
38224;SDS011;24025;48.138;11.428;2023-11-19T05:41:02;1.03;;;0.20;;
38224;SDS011;24025;48.138;11.428;2023-11-19T05:43:34;0.30;;;0.15;;
38224;SDS011;24025;48.138;11.428;2023-11-19T05:46:06;0.10;;;0.10;;
38224;SDS011;24025;48.138;11.428;2023-11-19T05:48:50;0.28;;;0.10;;
38224;SDS011;24025;48.138;11.428;2023-11-19T05:51:22;0.20;;;0.15;;
38224;SDS011;24025;48.138;11.428;2023-11-19T05:53:55;0.25;;;0.10;;
38224;SDS011;24025;48.138;11.428;2023-11-19T05:56:28;0.20;;;0.10;;
38224;SDS011;24025;48.138;11.428;2023-11-19T05:59:03;0.57;;;0.17;;
38224;SDS011;24025;48.138;11.428;2023-11-19T06:01:38;0.28;;;0.15;;
38224;SDS011;24025;48.138;11.428;2023-11-19T06:04:12;0.20;;;0.10;;
38224;SDS011;24025;48.138;11.428;2023-11-19T06:06:44;0.20;;;0.20;;
38224;SDS011;24025;48.138;11.428;2023-11-19T06:09:16;0.07;;;0.00;;
38224;SDS011;24025;48.138;11.428;2023-11-19T06:11:50;0.30;;;0.10;;
38224;SDS011;24025;48.138;11.428;2023-11-19T06:14:22;0.15;;;0.10;;
38224;SDS011;24025;48.138;11.428;2023-11-19T06:16:55;0.63;;;0.20;;
38224;SDS011;24025;48.138;11.428;2023-11-19T06:19:27;0.20;;;0.10;;
38224;SDS011;24025;48.138;11.428;2023-11-19T06:22:01;0.00;;;0.00;;
38224;SDS011;24025;48.138;11.428;2023-11-19T06:24:33;0.10;;;0.03;;
38224;SDS011;24025;48.138;11.428;2023-11-19T06:27:04;0.00;;;0.00;;
38224;SDS011;24025;48.138;11.428;2023-11-19T06:29:36;0.65;;;0.25;;
38224;SDS011;24025;48.138;11.428;2023-11-19T06:32:07;0.20;;;0.17;;
38224;SDS011;24025;48.138;11.428;2023-11-19T06:34:42;1.08;;;0.10;;
38224;SDS011;24025;48.138;11.428;2023-11-19T06:37:13;0.00;;;0.00;;
38224;SDS011;24025;48.138;11.428;2023-11-19T06:39:45;0.13;;;0.13;;
38224;SDS011;24025;48.138;11.428;2023-11-19T06:42:17;0.00;;;0.00;;
38224;SDS011;24025;48.138;11.428;2023-11-19T06:44:48;0.17;;;0.10;;
38224;SDS011;24025;48.138;11.428;2023-11-19T06:47:20;0.00;;;0.00;;
38224;SDS011;24025;48.138;11.428;2023-11-19T06:49:52;0.00;;;0.00;;
38224;SDS011;24025;48.138;11.428;2023-11-19T06:52:24;0.30;;;0.10;;
38224;SDS011;24025;48.138;11.428;2023-11-19T06:54:56;0.30;;;0.10;;
38224;SDS011;24025;48.138;11.428;2023-11-19T07:00:10;0.30;;;0.20;;
38224;SDS011;24025;48.138;11.428;2023-11-19T07:02:42;0.00;;;0.00;;
38224;SDS011;24025;48.138;11.428;2023-11-19T07:05:15;0.13;;;0.05;;
38224;SDS011;24025;48.138;11.428;2023-11-19T07:07:47;0.43;;;0.05;;
38224;SDS011;24025;48.138;11.428;2023-11-19T07:10:19;0.10;;;0.00;;
38224;SDS011;24025;48.138;11.428;2023-11-19T07:12:50;0.00;;;0.00;;
38224;SDS011;24025;48.138;11.428;2023-11-19T07:15:22;0.00;;;0.00;;
38224;SDS011;24025;48.138;11.428;2023-11-19T07:17:54;0.00;;;0.00;;
38224;SDS011;24025;48.138;11.428;2023-11-19T07:20:28;0.10;;;0.10;;
38224;SDS011;24025;48.138;11.428;2023-11-19T07:23:00;0.65;;;0.20;;
38224;SDS011;24025;48.138;11.428;2023-11-19T07:25:31;0.98;;;0.00;;
38224;SDS011;24025;48.138;11.428;2023-11-19T07:28:03;0.20;;;0.00;;
38224;SDS011;24025;48.138;11.428;2023-11-19T07:30:35;0.15;;;0.00;;
38224;SDS011;24025;48.138;11.428;2023-11-19T07:33:08;0.08;;;0.00;;
38224;SDS011;24025;48.138;11.428;2023-11-19T07:35:42;0.00;;;0.00;;
38224;SDS011;24025;48.138;11.428;2023-11-19T07:38:14;0.10;;;0.10;;
38224;SDS011;24025;48.138;11.428;2023-11-19T07:40:46;0.95;;;0.40;;
38224;SDS011;24025;48.138;11.428;2023-11-19T07:43:21;0.38;;;0.10;;
38224;SDS011;24025;48.138;11.428;2023-11-19T07:45:53;0.20;;;0.10;;
38224;SDS011;24025;48.138;11.428;2023-11-19T07:48:25;0.00;;;0.00;;
38224;SDS011;24025;48.138;11.428;2023-11-19T07:53:28;1.75;;;0.20;;
38224;SDS011;24025;48.138;11.428;2023-11-19T07:56:00;0.38;;;0.10;;
38224;SDS011;24025;48.138;11.428;2023-11-19T07:58:32;0.82;;;0.25;;
38224;SDS011;24025;48.138;11.428;2023-11-19T08:01:04;0.10;;;0.10;;
38224;SDS011;24025;48.138;11.428;2023-11-19T08:06:08;0.10;;;0.10;;
38224;SDS011;24025;48.138;11.428;2023-11-19T08:08:40;0.22;;;0.10;;
38224;SDS011;24025;48.138;11.428;2023-11-19T08:11:11;2.08;;;0.05;;
38224;SDS011;24025;48.138;11.428;2023-11-19T08:13:43;0.47;;;0.20;;
38224;SDS011;24025;48.138;11.428;2023-11-19T08:16:15;0.75;;;0.10;;
38224;SDS011;24025;48.138;11.428;2023-11-19T08:18:47;0.57;;;0.10;;
38224;SDS011;24025;48.138;11.428;2023-11-19T08:21:18;0.53;;;0.20;;
38224;SDS011;24025;48.138;11.428;2023-11-19T08:23:50;0.40;;;0.30;;
38224;SDS011;24025;48.138;11.428;2023-11-19T08:26:21;0.00;;;0.00;;
38224;SDS011;24025;48.138;11.428;2023-11-19T08:28:53;1.20;;;0.20;;
38224;SDS011;24025;48.138;11.428;2023-11-19T08:31:25;0.45;;;0.10;;
38224;SDS011;24025;48.138;11.428;2023-11-19T08:33:57;0.10;;;0.03;;
38224;SDS011;24025;48.138;11.428;2023-11-19T08:36:28;0.50;;;0.20;;
38224;SDS011;24025;48.138;11.428;2023-11-19T08:39:00;0.63;;;0.13;;
38224;SDS011;24025;48.138;11.428;2023-11-19T08:41:32;0.20;;;0.20;;
38224;SDS011;24025;48.138;11.428;2023-11-19T08:44:03;0.13;;;0.10;;
38224;SDS011;24025;48.138;11.428;2023-11-19T08:46:35;0.13;;;0.13;;
38224;SDS011;24025;48.138;11.428;2023-11-19T08:49:06;0.00;;;0.00;;
38224;SDS011;24025;48.138;11.428;2023-11-19T08:51:43;0.32;;;0.10;;
38224;SDS011;24025;48.138;11.428;2023-11-19T08:54:16;0.17;;;0.08;;
38224;SDS011;24025;48.138;11.428;2023-11-19T08:56:47;0.00;;;0.00;;
38224;SDS011;24025;48.138;11.428;2023-11-19T08:59:19;2.33;;;0.10;;
38224;SDS011;24025;48.138;11.428;2023-11-19T09:01:51;0.20;;;0.10;;
38224;SDS011;24025;48.138;11.428;2023-11-19T09:04:22;2.10;;;0.22;;
38224;SDS011;24025;48.138;11.428;2023-11-19T09:06:54;0.60;;;0.35;;
38224;SDS011;24025;48.138;11.428;2023-11-19T09:11:58;0.43;;;0.10;;
38224;SDS011;24025;48.138;11.428;2023-11-19T09:14:30;0.60;;;0.20;;
38224;SDS011;24025;48.138;11.428;2023-11-19T09:17:02;0.03;;;0.03;;
38224;SDS011;24025;48.138;11.428;2023-11-19T09:19:33;0.55;;;0.20;;
38224;SDS011;24025;48.138;11.428;2023-11-19T09:22:07;0.30;;;0.28;;
38224;SDS011;24025;48.138;11.428;2023-11-19T09:24:38;0.88;;;0.25;;
38224;SDS011;24025;48.138;11.428;2023-11-19T09:27:10;0.45;;;0.20;;
38224;SDS011;24025;48.138;11.428;2023-11-19T09:29:42;0.08;;;0.03;;
38224;SDS011;24025;48.138;11.428;2023-11-19T09:32:14;0.75;;;0.10;;
38224;SDS011;24025;48.138;11.428;2023-11-19T09:34:46;0.13;;;0.10;;
38224;SDS011;24025;48.138;11.428;2023-11-19T09:37:18;0.25;;;0.10;;
38224;SDS011;24025;48.138;11.428;2023-11-19T09:39:52;0.80;;;0.22;;
38224;SDS011;24025;48.138;11.428;2023-11-19T09:42:24;0.20;;;0.10;;
38224;SDS011;24025;48.138;11.428;2023-11-19T09:44:56;0.40;;;0.20;;
38224;SDS011;24025;48.138;11.428;2023-11-19T09:47:30;0.20;;;0.10;;
38224;SDS011;24025;48.138;11.428;2023-11-19T09:50:02;0.50;;;0.38;;
38224;SDS011;24025;48.138;11.428;2023-11-19T09:52:36;0.22;;;0.20;;
38224;SDS011;24025;48.138;11.428;2023-11-19T09:55:07;0.50;;;0.30;;
38224;SDS011;24025;48.138;11.428;2023-11-19T09:57:40;1.35;;;0.20;;
38224;SDS011;24025;48.138;11.428;2023-11-19T10:00:13;0.13;;;0.10;;
38224;SDS011;24025;48.138;11.428;2023-11-19T10:02:47;0.60;;;0.20;;
38224;SDS011;24025;48.138;11.428;2023-11-19T10:05:21;0.10;;;0.10;;
38224;SDS011;24025;48.138;11.428;2023-11-19T10:07:57;0.10;;;0.10;;
38224;SDS011;24025;48.138;11.428;2023-11-19T10:10:29;0.20;;;0.10;;
38224;SDS011;24025;48.138;11.428;2023-11-19T10:13:01;0.20;;;0.10;;
38224;SDS011;24025;48.138;11.428;2023-11-19T10:15:36;0.30;;;0.10;;
38224;SDS011;24025;48.138;11.428;2023-11-19T10:18:08;1.35;;;0.20;;
38224;SDS011;24025;48.138;11.428;2023-11-19T10:20:40;0.28;;;0.17;;
38224;SDS011;24025;48.138;11.428;2023-11-19T10:25:44;0.57;;;0.10;;
38224;SDS011;24025;48.138;11.428;2023-11-19T10:28:15;0.00;;;0.00;;
38224;SDS011;24025;48.138;11.428;2023-11-19T10:30:52;0.32;;;0.20;;
38224;SDS011;24025;48.138;11.428;2023-11-19T10:33:27;0.32;;;0.20;;
38224;SDS011;24025;48.138;11.428;2023-11-19T10:36:01;0.20;;;0.20;;
38224;SDS011;24025;48.138;11.428;2023-11-19T10:38:34;0.20;;;0.13;;
38224;SDS011;24025;48.138;11.428;2023-11-19T10:41:05;0.00;;;0.00;;
38224;SDS011;24025;48.138;11.428;2023-11-19T10:46:18;0.55;;;0.10;;
38224;SDS011;24025;48.138;11.428;2023-11-19T10:48:54;0.90;;;0.82;;
38224;SDS011;24025;48.138;11.428;2023-11-19T10:51:26;0.30;;;0.10;;
38224;SDS011;24025;48.138;11.428;2023-11-19T10:54:01;0.20;;;0.10;;
38224;SDS011;24025;48.138;11.428;2023-11-19T10:56:37;0.10;;;0.10;;
38224;SDS011;24025;48.138;11.428;2023-11-19T10:59:09;0.73;;;0.13;;
38224;SDS011;24025;48.138;11.428;2023-11-19T11:01:45;0.32;;;0.20;;
38224;SDS011;24025;48.138;11.428;2023-11-19T11:04:20;0.28;;;0.20;;
38224;SDS011;24025;48.138;11.428;2023-11-19T11:06:55;0.28;;;0.20;;
38224;SDS011;24025;48.138;11.428;2023-11-19T11:09:30;0.13;;;0.13;;
38224;SDS011;24025;48.138;11.428;2023-11-19T11:12:03;0.82;;;0.22;;
38224;SDS011;24025;48.138;11.428;2023-11-19T11:14:37;0.20;;;0.10;;
38224;SDS011;24025;48.138;11.428;2023-11-19T11:17:12;0.10;;;0.10;;
38224;SDS011;24025;48.138;11.428;2023-11-19T11:19:49;0.03;;;0.00;;
38224;SDS011;24025;48.138;11.428;2023-11-19T11:22:21;0.28;;;0.15;;
38224;SDS011;24025;48.138;11.428;2023-11-19T11:25:11;0.35;;;0.20;;
38224;SDS011;24025;48.138;11.428;2023-11-19T11:28:35;0.10;;;0.10;;
38224;SDS011;24025;48.138;11.428;2023-11-19T11:31:24;0.20;;;0.10;;
38224;SDS011;24025;48.138;11.428;2023-11-19T11:34:24;0.30;;;0.10;;
38224;SDS011;24025;48.138;11.428;2023-11-19T11:37:31;0.10;;;0.10;;
38224;SDS011;24025;48.138;11.428;2023-11-19T11:40:06;0.22;;;0.05;;
38224;SDS011;24025;48.138;11.428;2023-11-19T11:42:42;0.25;;;0.00;;
38224;SDS011;24025;48.138;11.428;2023-11-19T11:45:14;0.40;;;0.10;;
38224;SDS011;24025;48.138;11.428;2023-11-19T11:50:18;0.20;;;0.10;;
38224;SDS011;24025;48.138;11.428;2023-11-19T11:58:27;0.35;;;0.10;;
38224;SDS011;24025;48.138;11.428;2023-11-19T12:01:03;0.05;;;0.00;;
38224;SDS011;24025;48.138;11.428;2023-11-19T12:03:37;0.20;;;0.10;;
38224;SDS011;24025;48.138;11.428;2023-11-19T12:06:09;0.70;;;0.10;;
38224;SDS011;24025;48.138;11.428;2023-11-19T12:08:42;0.00;;;0.00;;
38224;SDS011;24025;48.138;11.428;2023-11-19T12:11:16;0.25;;;0.10;;
38224;SDS011;24025;48.138;11.428;2023-11-19T12:13:56;0.17;;;0.10;;
38224;SDS011;24025;48.138;11.428;2023-11-19T12:16:34;0.00;;;0.00;;
38224;SDS011;24025;48.138;11.428;2023-11-19T12:19:09;0.60;;;0.00;;
38224;SDS011;24025;48.138;11.428;2023-11-19T12:21:41;0.17;;;0.17;;
38224;SDS011;24025;48.138;11.428;2023-11-19T12:24:12;0.45;;;0.10;;
38224;SDS011;24025;48.138;11.428;2023-11-19T12:26:45;3.20;;;0.10;;
38224;SDS011;24025;48.138;11.428;2023-11-19T12:29:21;0.40;;;0.10;;
38224;SDS011;24025;48.138;11.428;2023-11-19T12:31:53;0.20;;;0.20;;
38224;SDS011;24025;48.138;11.428;2023-11-19T12:34:26;0.35;;;0.15;;
38224;SDS011;24025;48.138;11.428;2023-11-19T12:36:58;0.63;;;0.25;;
38224;SDS011;24025;48.138;11.428;2023-11-19T12:39:30;0.20;;;0.20;;
38224;SDS011;24025;48.138;11.428;2023-11-19T12:42:02;0.20;;;0.10;;
38224;SDS011;24025;48.138;11.428;2023-11-19T12:44:33;0.25;;;0.20;;
38224;SDS011;24025;48.138;11.428;2023-11-19T12:47:07;1.23;;;0.20;;
38224;SDS011;24025;48.138;11.428;2023-11-19T12:49:39;0.10;;;0.10;;
38224;SDS011;24025;48.138;11.428;2023-11-19T12:52:13;0.98;;;0.15;;
38224;SDS011;24025;48.138;11.428;2023-11-19T12:54:45;0.32;;;0.15;;
38224;SDS011;24025;48.138;11.428;2023-11-19T12:57:16;0.22;;;0.10;;
38224;SDS011;24025;48.138;11.428;2023-11-19T12:59:56;0.13;;;0.10;;
38224;SDS011;24025;48.138;11.428;2023-11-19T13:02:46;0.90;;;0.15;;
38224;SDS011;24025;48.138;11.428;2023-11-19T13:05:23;0.90;;;0.30;;
38224;SDS011;24025;48.138;11.428;2023-11-19T13:07:58;0.05;;;0.03;;
38224;SDS011;24025;48.138;11.428;2023-11-19T13:10:33;0.88;;;0.25;;
38224;SDS011;24025;48.138;11.428;2023-11-19T13:13:22;0.22;;;0.10;;
38224;SDS011;24025;48.138;11.428;2023-11-19T13:15:53;0.28;;;0.13;;
38224;SDS011;24025;48.138;11.428;2023-11-19T13:18:34;0.35;;;0.10;;
38224;SDS011;24025;48.138;11.428;2023-11-19T13:21:08;0.30;;;0.10;;
38224;SDS011;24025;48.138;11.428;2023-11-19T13:23:40;1.05;;;0.63;;
38224;SDS011;24025;48.138;11.428;2023-11-19T13:26:12;0.70;;;0.22;;
38224;SDS011;24025;48.138;11.428;2023-11-19T13:31:16;0.30;;;0.10;;
38224;SDS011;24025;48.138;11.428;2023-11-19T13:33:48;0.10;;;0.10;;
38224;SDS011;24025;48.138;11.428;2023-11-19T13:36:20;0.80;;;0.15;;
38224;SDS011;24025;48.138;11.428;2023-11-19T13:38:52;0.30;;;0.10;;
38224;SDS011;24025;48.138;11.428;2023-11-19T13:41:30;0.17;;;0.17;;
38224;SDS011;24025;48.138;11.428;2023-11-19T13:44:01;1.92;;;0.30;;
38224;SDS011;24025;48.138;11.428;2023-11-19T13:46:33;0.15;;;0.10;;
38224;SDS011;24025;48.138;11.428;2023-11-19T13:49:05;0.88;;;0.10;;
38224;SDS011;24025;48.138;11.428;2023-11-19T13:51:36;0.22;;;0.10;;
38224;SDS011;24025;48.138;11.428;2023-11-19T13:54:08;0.25;;;0.13;;
38224;SDS011;24025;48.138;11.428;2023-11-19T13:56:40;1.17;;;0.80;;
38224;SDS011;24025;48.138;11.428;2023-11-19T13:59:12;2.72;;;0.70;;
38224;SDS011;24025;48.138;11.428;2023-11-19T14:01:43;2.08;;;0.82;;
38224;SDS011;24025;48.138;11.428;2023-11-19T14:04:15;1.15;;;0.25;;
38224;SDS011;24025;48.138;11.428;2023-11-19T14:06:47;0.75;;;0.10;;
38224;SDS011;24025;48.138;11.428;2023-11-19T14:09:18;0.95;;;0.20;;
38224;SDS011;24025;48.138;11.428;2023-11-19T14:11:50;0.10;;;0.10;;
38224;SDS011;24025;48.138;11.428;2023-11-19T14:14:22;1.27;;;0.63;;
38224;SDS011;24025;48.138;11.428;2023-11-19T14:16:54;1.30;;;0.20;;
38224;SDS011;24025;48.138;11.428;2023-11-19T14:19:44;1.38;;;0.20;;
38224;SDS011;24025;48.138;11.428;2023-11-19T14:22:16;1.20;;;0.40;;
38224;SDS011;24025;48.138;11.428;2023-11-19T14:24:47;0.85;;;0.32;;
38224;SDS011;24025;48.138;11.428;2023-11-19T14:27:19;0.77;;;0.30;;
38224;SDS011;24025;48.138;11.428;2023-11-19T14:29:51;0.75;;;0.28;;
38224;SDS011;24025;48.138;11.428;2023-11-19T14:32:23;1.13;;;0.20;;
38224;SDS011;24025;48.138;11.428;2023-11-19T14:34:54;0.10;;;0.10;;
38224;SDS011;24025;48.138;11.428;2023-11-19T14:37:26;0.65;;;0.43;;
38224;SDS011;24025;48.138;11.428;2023-11-19T14:39:58;0.45;;;0.28;;
38224;SDS011;24025;48.138;11.428;2023-11-19T14:45:01;0.52;;;0.40;;
38224;SDS011;24025;48.138;11.428;2023-11-19T14:47:33;0.90;;;0.73;;
38224;SDS011;24025;48.138;11.428;2023-11-19T14:50:05;1.55;;;0.65;;
38224;SDS011;24025;48.138;11.428;2023-11-19T14:52:38;1.00;;;0.32;;
38224;SDS011;24025;48.138;11.428;2023-11-19T14:55:09;2.13;;;0.60;;
38224;SDS011;24025;48.138;11.428;2023-11-19T14:57:42;0.57;;;0.30;;
38224;SDS011;24025;48.138;11.428;2023-11-19T15:00:28;1.17;;;0.50;;
38224;SDS011;24025;48.138;11.428;2023-11-19T15:03:00;1.38;;;0.30;;
38224;SDS011;24025;48.138;11.428;2023-11-19T15:05:32;0.68;;;0.30;;
38224;SDS011;24025;48.138;11.428;2023-11-19T15:08:04;1.17;;;0.73;;
38224;SDS011;24025;48.138;11.428;2023-11-19T15:10:36;0.90;;;0.30;;
38224;SDS011;24025;48.138;11.428;2023-11-19T15:13:08;2.22;;;1.75;;
38224;SDS011;24025;48.138;11.428;2023-11-19T15:15:40;5.60;;;2.85;;
38224;SDS011;24025;48.138;11.428;2023-11-19T15:18:13;2.47;;;1.55;;
38224;SDS011;24025;48.138;11.428;2023-11-19T15:20:48;1.73;;;1.08;;
38224;SDS011;24025;48.138;11.428;2023-11-19T15:23:19;3.20;;;1.80;;
38224;SDS011;24025;48.138;11.428;2023-11-19T15:25:54;2.15;;;1.42;;
38224;SDS011;24025;48.138;11.428;2023-11-19T15:30:57;2.67;;;1.02;;
38224;SDS011;24025;48.138;11.428;2023-11-19T15:33:29;1.00;;;0.90;;
38224;SDS011;24025;48.138;11.428;2023-11-19T15:36:01;1.10;;;0.70;;
38224;SDS011;24025;48.138;11.428;2023-11-19T15:38:34;2.22;;;0.70;;
38224;SDS011;24025;48.138;11.428;2023-11-19T15:41:23;1.52;;;0.47;;
38224;SDS011;24025;48.138;11.428;2023-11-19T15:43:55;4.65;;;0.98;;
38224;SDS011;24025;48.138;11.428;2023-11-19T15:46:26;0.95;;;0.43;;
38224;SDS011;24025;48.138;11.428;2023-11-19T15:49:00;0.60;;;0.40;;
38224;SDS011;24025;48.138;11.428;2023-11-19T15:51:32;2.47;;;0.40;;